^^
Paulen-Weather Station Historical Data
Daily Summary for July 08, 2022 Units:  Metric    English   Both
Daily Weekly Monthly Yearly Custom
  High: Low: Average:
Temperature: 16 °C 14 °C 15 °C
Dew Point: 10 °C 9 °C 9.5 °C
Humidity: 74% 63% 69%
Wind Speed: 30km/h 11km/h 18.2km/h
Wind Gust: 32km/h - -
Wind- - WNW
Pressure: 1019.71 hPa 1018.32 hPa -
Precipitation: 0 mm    
Historical Graphs
 
 
Tabular Data for July 08, 2022
Time Temperature Dew Point Pressure Wind Wind Speed Wind Gust Humidity Rainfall Rate (Hourly) solar
00:04 16 °C 10 °C 1018.49 hPa NW 30 km/h 32 km/h 64% 0 mm 0 W/m2
00:09 16 °C 10 °C 1018.39 hPa NW 22 km/h 19 km/h 64% 0 mm 0 W/m2
00:14 16 °C 10 °C 1018.32 hPa NW 22 km/h 19 km/h 63% 0 mm 0 W/m2
00:19 16 °C 10 °C 1018.42 hPa NW 18 km/h 17 km/h 64% 0 mm 0 W/m2
00:24 16 °C 10 °C 1018.46 hPa WNW 20 km/h 17 km/h 64% 0 mm 0 W/m2
00:29 16 °C 10 °C 1018.56 hPa NW 23 km/h 22 km/h 64% 0 mm 0 W/m2
00:34 16 °C 10 °C 1018.59 hPa NW 19 km/h 17 km/h 64% 0 mm 0 W/m2
00:39 16 °C 9 °C 1018.66 hPa WNW 19 km/h 16 km/h 64% 0 mm 0 W/m2
00:44 16 °C 10 °C 1018.69 hPa NW 18 km/h 16 km/h 65% 0 mm 0 W/m2
00:49 16 °C 10 °C 1018.63 hPa NW 24 km/h 23 km/h 65% 0 mm 0 W/m2
00:54 16 °C 10 °C 1018.66 hPa NW 28 km/h 23 km/h 65% 0 mm 0 W/m2
00:59 16 °C 10 °C 1018.73 hPa NW 26 km/h 21 km/h 65% 0 mm 0 W/m2
01:04 16 °C 10 °C 1018.8 hPa NW 22 km/h 19 km/h 65% 0 mm 0 W/m2
01:09 16 °C 10 °C 1018.83 hPa NW 18 km/h 16 km/h 66% 0 mm 0 W/m2
01:14 16 °C 9 °C 1018.93 hPa NW 20 km/h 16 km/h 66% 0 mm 0 W/m2
01:19 16 °C 9 °C 1019 hPa NW 20 km/h 16 km/h 66% 0 mm 0 W/m2
01:24 16 °C 9 °C 1019 hPa WNW 21 km/h 16 km/h 66% 0 mm 0 W/m2
01:29 16 °C 9 °C 1018.96 hPa NW 18 km/h 15 km/h 66% 0 mm 0 W/m2
01:34 16 °C 10 °C 1018.9 hPa NW 19 km/h 18 km/h 67% 0 mm 0 W/m2
01:39 16 °C 10 °C 1019.1 hPa NW 19 km/h 18 km/h 67% 0 mm 0 W/m2
01:44 16 °C 10 °C 1019.2 hPa NW 17 km/h 17 km/h 68% 0 mm 0 W/m2
01:49 15 °C 10 °C 1019.2 hPa NW 14 km/h 12 km/h 67% 0 mm 0 W/m2
01:54 15 °C 10 °C 1019.24 hPa WNW 11 km/h 13 km/h 68% 0 mm 0 W/m2
01:59 15 °C 10 °C 1019.34 hPa NW 19 km/h 14 km/h 68% 0 mm 0 W/m2
02:04 15 °C 9 °C 1019.4 hPa NW 16 km/h 13 km/h 69% 0 mm 0 W/m2
02:09 15 °C 9 °C 1019.47 hPa WNW 17 km/h 15 km/h 69% 0 mm 0 W/m2
02:14 15 °C 10 °C 1019.54 hPa NW 16 km/h 13 km/h 70% 0 mm 0 W/m2
02:19 15 °C 10 °C 1019.44 hPa WNW 14 km/h 10 km/h 71% 0 mm 0 W/m2
02:24 15 °C 10 °C 1019.47 hPa WNW 12 km/h 10 km/h 72% 0 mm 0 W/m2
02:29 14 °C 10 °C 1019.44 hPa WNW 15 km/h 12 km/h 73% 0 mm 0 W/m2
02:34 14 °C 9 °C 1019.44 hPa WNW 17 km/h 13 km/h 72% 0 mm 0 W/m2
02:39 14 °C 9 °C 1019.47 hPa WNW 17 km/h 12 km/h 72% 0 mm 0 W/m2
02:44 14 °C 9 °C 1019.51 hPa WNW 15 km/h 11 km/h 73% 0 mm 0 W/m2
02:49 14 °C 9 °C 1019.51 hPa NW 15 km/h 12 km/h 73% 0 mm 0 W/m2
02:54 14 °C 9 °C 1019.51 hPa WNW 18 km/h 14 km/h 72% 0 mm 0 W/m2
02:59 14 °C 9 °C 1019.44 hPa WNW 22 km/h 17 km/h 74% 0 mm 0 W/m2
03:04 14 °C 9 °C 1019.57 hPa WNW 14 km/h 10 km/h 74% 0 mm 0 W/m2
03:09 14 °C 9 °C 1019.71 hPa WNW 11 km/h 12 km/h 74% 0 mm 0 W/m2
03:14 14 °C 9 °C 1019.71 hPa WNW 16 km/h 12 km/h 74% 0 mm 0 W/m2
03:19 14 °C 9 °C 1019.57 hPa WNW 15 km/h 12 km/h 74% 0 mm 0 W/m2
03:24 14 °C 9 °C 1019.54 hPa WNW 20 km/h 14 km/h 73% 0 mm 0 W/m2
03:29 14 °C 9 °C 1019.51 hPa WNW 15 km/h 13 km/h 73% 0 mm 0 W/m2
03:34 14 °C 9 °C 1019.54 hPa WNW 15 km/h 12 km/h 73% 0 mm 0 W/m2
03:39 14 °C 9 °C 1019.61 hPa WNW 16 km/h 12 km/h 73% 0 mm 0 W/m2
03:44 14 °C 9 °C 1019.68 hPa WNW 13 km/h 10 km/h 73% 0 mm 0 W/m2
03:49 14 °C 9 °C 1019.61 hPa WNW 16 km/h 14 km/h 74% 0 mm 0 W/m2
03:54 14 °C 9 °C 1019.57 hPa WNW 16 km/h 14 km/h 73% 0 mm 0 W/m2
03:59 14 °C 9 °C 1019.54 hPa WNW 20 km/h 15 km/h 73% 0 mm 0 W/m2
04:04 14 °C 9 °C 1019.37 hPa WNW 22 km/h 14 km/h 73% 0 mm 0 W/m2
Compliments of Weather Underground - 2 mb